Time;durP1;ratioP1;P1;durP2;ratioP2;P2;SDS_P1;SDS_P2;PMS_P1;PMS_P2;Temp;Humidity;BMP_temperature;BMP_pressure;BME280_temperature;BME280_humidity;BME280_pressure;Samples;Min_cycle;Max_cycle;Signal;HPM_P1;HPM_P2
2023/12/05 00:01:01;;;;;;;26.40;18.90;;;3.70;55.10;;;;;;5034795;28;20018;-65
2023/12/05 00:03:27;;;;;;;25.45;17.73;;;3.90;54.50;;;;;;5033474;28;20057;-67
2023/12/05 00:05:53;;;;;;;22.13;16.67;;;4.00;54.30;;;;;;5034798;28;20028;-66
2023/12/05 00:08:19;;;;;;;28.00;19.92;;;4.10;53.90;;;;;;5034520;28;20388;-65
2023/12/05 00:10:44;;;;;;;26.15;17.58;;;4.20;54.00;;;;;;5034423;28;20064;-65
2023/12/05 00:13:11;;;;;;;26.25;18.88;;;4.10;54.10;;;;;;5034510;28;20030;-70
2023/12/05 00:15:36;;;;;;;23.77;17.63;;;4.20;54.80;;;;;;5034655;28;20026;-64
2023/12/05 00:18:02;;;;;;;26.08;19.20;;;4.20;54.50;;;;;;5034403;28;20070;-67
2023/12/05 00:20:28;;;;;;;24.95;18.75;;;4.20;55.00;;;;;;5034694;28;20418;-61
2023/12/05 00:22:53;;;;;;;37.35;25.13;;;4.20;54.30;;;;;;5034447;28;20029;-62
2023/12/05 00:25:19;;;;;;;29.75;20.70;;;4.20;54.50;;;;;;5034268;28;20476;-68
2023/12/05 00:27:45;;;;;;;34.03;22.75;;;4.30;55.60;;;;;;5034345;28;20013;-61
2023/12/05 00:30:11;;;;;;;28.75;20.73;;;4.30;54.60;;;;;;5034306;28;20498;-65
2023/12/05 00:32:37;;;;;;;27.75;21.17;;;4.30;54.00;;;;;;5034397;28;20048;-64
2023/12/05 00:35:03;;;;;;;41.17;27.98;;;4.30;54.20;;;;;;5034163;28;20434;-70
2023/12/05 00:37:28;;;;;;;48.17;32.90;;;4.40;54.10;;;;;;5032922;28;20025;-63
2023/12/05 00:39:54;;;;;;;63.67;42.72;;;4.40;54.40;;;;;;5034046;28;20391;-67
2023/12/05 00:42:20;;;;;;;48.97;34.35;;;4.30;54.80;;;;;;5033913;28;20033;-66
2023/12/05 00:44:46;;;;;;;50.45;33.28;;;4.30;54.70;;;;;;5034034;28;20021;-59
2023/12/05 00:47:11;;;;;;;49.88;33.15;;;4.40;54.40;;;;;;5033922;28;20541;-62
2023/12/05 00:49:37;;;;;;;46.88;32.28;;;4.40;55.20;;;;;;5033948;28;20049;-65
2023/12/05 00:52:03;;;;;;;46.72;30.65;;;4.40;54.40;;;;;;5033721;28;20498;-65
2023/12/05 00:54:29;;;;;;;44.97;31.48;;;4.40;54.30;;;;;;5033763;28;20028;-65
2023/12/05 00:56:55;;;;;;;57.05;38.30;;;4.50;54.90;;;;;;5033768;28;20017;-68
2023/12/05 00:59:21;;;;;;;58.50;39.22;;;4.40;55.60;;;;;;5033750;28;20051;-64
2023/12/05 01:01:47;;;;;;;65.53;41.08;;;4.30;56.80;;;;;;5033696;28;20025;-62
2023/12/05 01:04:12;;;;;;;60.03;41.47;;;4.30;56.60;;;;;;5033617;28;20026;-65
2023/12/05 01:06:38;;;;;;;53.63;38.35;;;4.20;56.80;;;;;;5032535;28;20079;-58
2023/12/05 01:09:06;;;;;;;52.95;36.40;;;4.20;57.20;;;;;;5033417;28;20032;-70
2023/12/05 01:11:32;;;;;;;54.42;38.95;;;4.20;56.80;;;;;;5033544;28;20487;-67
2023/12/05 01:13:57;;;;;;;51.85;35.85;;;4.30;56.40;;;;;;5033576;28;20036;-64
2023/12/05 01:16:23;;;;;;;50.15;34.90;;;4.40;56.20;;;;;;5033493;28;20025;-64
2023/12/05 01:18:49;;;;;;;45.85;32.70;;;4.40;56.20;;;;;;5033486;28;20033;-63
2023/12/05 01:21:15;;;;;;;55.40;37.33;;;4.40;56.50;;;;;;5033568;28;20079;-62
2023/12/05 01:23:41;;;;;;;59.50;39.45;;;4.40;56.80;;;;;;5032167;28;20083;-59
2023/12/05 01:26:07;;;;;;;66.63;43.25;;;4.30;56.80;;;;;;5033297;28;20033;-60
2023/12/05 01:28:32;;;;;;;48.50;33.95;;;4.20;57.60;;;;;;5033426;28;20017;-63
2023/12/05 01:30:58;;;;;;;53.17;36.28;;;4.10;59.00;;;;;;5033529;28;20013;-67
2023/12/05 01:33:24;;;;;;;53.80;34.83;;;4.10;59.30;;;;;;5033162;28;20029;-65
2023/12/05 01:35:49;;;;;;;47.05;33.10;;;4.10;63.10;;;;;;5032784;28;20470;-62
2023/12/05 01:38:18;;;;;;;44.85;30.90;;;4.20;63.70;;;;;;5033168;28;20036;-64
2023/12/05 01:40:44;;;;;;;62.55;41.78;;;4.20;63.30;;;;;;5033253;28;20555;-62
2023/12/05 01:43:10;;;;;;;62.42;41.88;;;4.20;60.80;;;;;;5033301;28;20373;-68
2023/12/05 01:45:36;;;;;;;50.95;34.33;;;4.10;60.80;;;;;;5033156;28;20024;-66
2023/12/05 01:48:04;;;;;;;65.00;44.83;;;4.00;62.80;;;;;;5033076;28;20018;-72
2023/12/05 01:50:30;;;;;;;71.63;46.92;;;4.10;62.80;;;;;;5033218;28;20029;-66
2023/12/05 01:52:59;;;;;;;62.05;39.90;;;4.00;63.50;;;;;;5033087;28;20037;-67
2023/12/05 01:55:28;;;;;;;53.10;37.08;;;4.00;65.90;;;;;;5033095;28;20033;-67
2023/12/05 01:57:54;;;;;;;68.15;42.15;;;4.10;64.70;;;;;;5033103;28;20029;-69
2023/12/05 02:00:20;;;;;;;88.78;57.40;;;4.20;64.00;;;;;;5032961;28;20038;-63
2023/12/05 02:02:47;;;;;;;72.63;48.05;;;4.20;64.70;;;;;;5032032;28;20037;-66
2023/12/05 02:05:14;;;;;;;64.88;43.83;;;4.10;67.10;;;;;;5032990;28;20024;-64
2023/12/05 02:07:40;;;;;;;54.70;39.95;;;4.10;66.30;;;;;;5032965;28;20030;-63
2023/12/05 02:10:08;;;;;;;59.75;40.53;;;4.10;66.30;;;;;;5032656;28;20128;-68
2023/12/05 02:12:36;;;;;;;58.85;37.50;;;4.20;65.40;;;;;;5032877;28;20029;-66
2023/12/05 02:15:03;;;;;;;62.15;38.95;;;4.30;63.40;;;;;;5032849;28;20017;-63
2023/12/05 02:17:52;;;;;;;60.25;39.92;;;4.40;63.40;;;;;;5032896;28;20021;-64
2023/12/05 02:20:56;;;;;;;61.38;39.50;;;4.40;63.40;;;;;;5032733;28;20029;-65
2023/12/05 02:23:31;;;;;;;52.65;35.70;;;4.30;64.50;;;;;;5032563;28;20029;-65
2023/12/05 02:25:57;;;;;;;66.53;42.80;;;4.30;64.30;;;;;;5032752;28;20420;-61
2023/12/05 02:28:23;;;;;;;70.70;44.67;;;4.30;64.60;;;;;;5032767;28;20088;-65
2023/12/05 02:30:49;;;;;;;55.58;37.70;;;4.20;64.80;;;;;;5032764;28;20083;-68
2023/12/05 02:33:15;;;;;;;48.60;33.83;;;4.20;65.90;;;;;;5032776;28;20030;-64
2023/12/05 02:35:41;;;;;;;47.60;32.30;;;4.20;65.90;;;;;;5032751;28;20029;-64
2023/12/05 02:38:26;;;;;;;45.50;31.90;;;4.30;65.30;;;;;;5032582;28;20079;-63
2023/12/05 02:41:04;;;;;;;43.58;31.17;;;4.30;63.20;;;;;;5031404;28;20474;-63
2023/12/05 02:43:48;;;;;;;79.07;48.63;;;4.30;63.80;;;;;;5032746;28;20036;-62
2023/12/05 02:46:17;;;;;;;91.28;55.13;;;4.30;65.70;;;;;;5032503;28;20026;-66
2023/12/05 02:48:43;;;;;;;87.70;53.40;;;4.10;69.00;;;;;;5035113;28;20025;-59
2023/12/05 02:51:10;;;;;;;88.47;56.38;;;3.90;70.50;;;;;;5036271;28;20045;-65
2023/12/05 02:53:36;;;;;;;93.22;58.25;;;3.80;72.60;;;;;;5036306;28;20108;-62
2023/12/05 02:56:02;;;;;;;99.60;60.40;;;3.80;73.70;;;;;;5035982;28;20108;-66
2023/12/05 02:58:28;;;;;;;97.07;61.08;;;3.70;75.00;;;;;;5034714;28;20192;-66
2023/12/05 03:00:54;;;;;;;106.50;63.65;;;3.60;76.60;;;;;;5036059;28;20501;-63
2023/12/05 03:03:20;;;;;;;87.65;56.83;;;3.50;79.90;;;;;;5035800;28;20100;-66
2023/12/05 03:05:45;;;;;;;86.28;52.22;;;3.40;80.00;;;;;;5035754;28;20384;-63
2023/12/05 03:08:11;;;;;;;80.07;50.38;;;3.50;80.30;;;;;;5035684;28;20061;-59
2023/12/05 03:10:37;;;;;;;79.40;49.88;;;3.50;79.90;;;;;;5035540;28;20053;-61
2023/12/05 03:13:02;;;;;;;82.15;50.70;;;3.50;77.80;;;;;;5035802;28;20034;-62
2023/12/05 03:15:28;;;;;;;81.78;52.13;;;3.40;78.90;;;;;;5034833;28;20017;-68
2023/12/05 03:17:53;;;;;;;72.30;46.72;;;3.40;80.90;;;;;;5035709;28;20430;-62
2023/12/05 03:20:19;;;;;;;68.22;42.05;;;3.40;81.30;;;;;;5035635;28;20021;-63
2023/12/05 03:22:45;;;;;;;87.10;53.78;;;3.40;80.90;;;;;;5035656;28;20029;-70
2023/12/05 03:25:11;;;;;;;66.90;43.08;;;3.40;81.00;;;;;;5035467;28;20028;-66
2023/12/05 03:27:37;;;;;;;63.92;40.30;;;3.30;80.70;;;;;;5035609;28;20472;-60
2023/12/05 03:30:03;;;;;;;69.97;40.83;;;3.40;79.40;;;;;;5035260;28;20033;-65
2023/12/05 03:32:29;;;;;;;52.63;35.17;;;3.40;78.70;;;;;;5035593;28;20112;-59
2023/12/05 03:34:55;;;;;;;47.10;32.53;;;3.50;79.10;;;;;;5035587;28;20049;-64
2023/12/05 03:37:21;;;;;;;62.13;38.30;;;3.40;78.70;;;;;;5035505;28;20382;-63
2023/12/05 03:39:46;;;;;;;50.72;33.50;;;3.50;78.10;;;;;;5035197;28;20497;-64
2023/12/05 03:42:12;;;;;;;53.72;36.65;;;3.40;77.70;;;;;;5033952;28;20116;-64
2023/12/05 03:44:38;;;;;;;53.28;36.03;;;3.40;76.50;;;;;;5035136;28;20017;-64
2023/12/05 03:47:03;;;;;;;55.97;36.45;;;3.40;76.10;;;;;;5035068;28;20129;-63
2023/12/05 03:49:29;;;;;;;56.63;37.95;;;3.50;75.30;;;;;;5035252;28;20022;-69
2023/12/05 03:51:55;;;;;;;50.80;33.45;;;3.50;74.50;;;;;;5034912;28;20017;-69
2023/12/05 03:54:21;;;;;;;62.13;40.28;;;3.50;76.50;;;;;;5034847;28;20396;-60
2023/12/05 03:56:46;;;;;;;58.20;36.85;;;3.50;75.90;;;;;;5034860;28;20026;-68
2023/12/05 03:59:12;;;;;;;53.53;35.38;;;3.40;76.80;;;;;;5034455;28;20025;-67
2023/12/05 04:01:38;;;;;;;78.55;49.92;;;3.30;76.90;;;;;;5034767;28;20383;-63
2023/12/05 04:04:03;;;;;;;122.45;79.55;;;3.30;79.00;;;;;;5034717;28;20361;-66
2023/12/05 04:06:29;;;;;;;113.40;72.22;;;3.00;83.50;;;;;;5034666;28;20026;-68
2023/12/05 04:08:55;;;;;;;113.85;73.50;;;2.80;85.80;;;;;;5034648;28;20022;-61
2023/12/05 04:11:32;;;;;;;99.88;65.13;;;2.70;87.40;;;;;;5034500;28;20056;-63
2023/12/05 04:13:58;;;;;;;92.68;59.22;;;2.50;89.80;;;;;;5034541;28;20387;-62
2023/12/05 04:16:24;;;;;;;84.20;53.58;;;2.40;90.20;;;;;;5033304;28;20026;-61
2023/12/05 04:18:50;;;;;;;74.68;48.10;;;2.60;89.40;;;;;;5034809;28;20017;-64
2023/12/05 04:21:19;;;;;;;67.63;44.40;;;2.70;88.70;;;;;;5034457;28;20071;-65
2023/12/05 04:23:46;;;;;;;70.78;43.17;;;2.70;86.90;;;;;;5034523;28;20025;-69
2023/12/05 04:26:19;;;;;;;60.22;39.45;;;2.90;86.60;;;;;;5034251;28;20021;-66
2023/12/05 04:28:45;;;;;;;63.58;39.65;;;2.90;87.00;;;;;;5034342;28;20017;-64
2023/12/05 04:31:11;;;;;;;53.08;35.47;;;3.00;85.30;;;;;;5034231;28;20040;-63
2023/12/05 04:33:39;;;;;;;51.35;32.33;;;3.00;84.50;;;;;;5034009;28;20029;-64
2023/12/05 04:36:05;;;;;;;57.08;38.83;;;3.00;84.70;;;;;;5034033;28;20025;-62
2023/12/05 04:38:31;;;;;;;51.47;34.33;;;3.00;85.10;;;;;;5034149;28;20475;-66
2023/12/05 04:40:57;;;;;;;46.65;32.83;;;2.70;87.20;;;;;;5034057;28;20021;-60
2023/12/05 04:43:22;;;;;;;52.38;34.28;;;2.70;87.50;;;;;;5034042;28;20383;-64
2023/12/05 04:45:48;;;;;;;40.70;27.83;;;2.70;87.80;;;;;;5033962;28;20104;-66
2023/12/05 04:48:14;;;;;;;44.85;30.88;;;2.70;87.00;;;;;;5033779;28;20026;-63
2023/12/05 04:50:40;;;;;;;35.40;23.80;;;2.80;86.80;;;;;;5033983;28;20028;-66
2023/12/05 04:53:05;;;;;;;34.95;24.85;;;2.70;86.20;;;;;;5033893;28;20052;-65
2023/12/05 04:55:31;;;;;;;32.72;22.70;;;2.70;86.20;;;;;;5033899;28;20032;-69
2023/12/05 04:57:57;;;;;;;29.85;21.33;;;2.80;85.90;;;;;;5033787;28;20021;-71
2023/12/05 05:00:22;;;;;;;41.47;27.33;;;2.80;85.50;;;;;;5033657;28;20468;-66
2023/12/05 05:02:48;;;;;;;43.55;31.73;;;2.80;86.50;;;;;;5033694;28;20377;-67
2023/12/05 05:05:14;;;;;;;33.78;24.23;;;2.60;89.60;;;;;;5033964;28;20032;-67
2023/12/05 05:07:39;;;;;;;30.52;21.95;;;2.50;89.80;;;;;;5033786;28;20479;-61
2023/12/05 05:10:06;;;;;;;31.42;22.48;;;2.50;90.00;;;;;;5032533;28;20107;-70
2023/12/05 05:12:31;;;;;;;40.15;29.42;;;2.50;89.90;;;;;;5033686;28;20108;-66
2023/12/05 05:14:57;;;;;;;46.60;33.13;;;2.60;89.80;;;;;;5032301;28;20113;-64
2023/12/05 05:17:23;;;;;;;36.45;27.45;;;2.50;90.20;;;;;;5033511;28;20026;-62
2023/12/05 05:19:48;;;;;;;33.10;24.88;;;2.40;90.50;;;;;;5033551;28;20075;-66
2023/12/05 05:22:15;;;;;;;30.42;22.80;;;2.40;90.50;;;;;;5033316;28;20377;-61
2023/12/05 05:24:40;;;;;;;28.52;21.77;;;2.40;89.70;;;;;;5033386;28;20022;-65
2023/12/05 05:27:06;;;;;;;33.67;22.70;;;2.40;88.80;;;;;;5033388;28;20043;-68
2023/12/05 05:29:32;;;;;;;25.52;18.40;;;2.40;89.20;;;;;;5033403;28;20025;-63
2023/12/05 05:31:58;;;;;;;23.20;16.95;;;2.40;88.80;;;;;;5033310;28;20071;-59
2023/12/05 05:34:24;;;;;;;23.75;16.55;;;2.50;89.10;;;;;;5033307;28;20030;-62
2023/12/05 05:36:50;;;;;;;21.73;15.43;;;2.50;88.20;;;;;;5033310;28;20024;-68
2023/12/05 05:39:16;;;;;;;22.85;17.10;;;2.50;87.90;;;;;;5033268;28;20017;-65
2023/12/05 05:41:42;;;;;;;18.95;14.55;;;2.60;87.10;;;;;;5033267;28;20021;-64
2023/12/05 05:44:07;;;;;;;39.78;27.38;;;2.60;87.40;;;;;;5033119;28;20167;-67
2023/12/05 05:46:33;;;;;;;28.85;19.33;;;2.60;87.90;;;;;;5033197;28;20025;-64
2023/12/05 05:48:59;;;;;;;31.85;22.35;;;2.60;87.90;;;;;;5033186;28;20028;-61
2023/12/05 05:51:25;;;;;;;30.08;22.05;;;2.60;87.30;;;;;;5033190;28;20083;-64
2023/12/05 05:53:52;;;;;;;32.47;23.25;;;2.60;86.40;;;;;;5032976;28;20025;-68
2023/12/05 05:56:18;;;;;;;26.52;19.05;;;2.60;86.20;;;;;;5033011;28;20464;-62
2023/12/05 05:58:44;;;;;;;26.55;19.13;;;2.50;87.10;;;;;;5033075;28;20080;-64
2023/12/05 06:01:12;;;;;;;25.88;19.08;;;2.50;87.50;;;;;;5031456;28;20502;-62
2023/12/05 06:03:37;;;;;;;28.98;21.83;;;2.50;87.80;;;;;;5031940;28;20043;-64
2023/12/05 06:06:03;;;;;;;23.48;17.60;;;2.40;89.10;;;;;;5033845;28;20475;-66
2023/12/05 06:08:29;;;;;;;21.60;16.90;;;2.40;89.50;;;;;;5034309;28;20387;-61
2023/12/05 06:10:55;;;;;;;21.35;15.75;;;2.40;89.30;;;;;;5037994;28;20046;-66
2023/12/05 06:13:20;;;;;;;19.45;15.10;;;2.40;89.40;;;;;;5039010;28;20029;-68
2023/12/05 06:15:46;;;;;;;18.65;13.60;;;2.50;90.00;;;;;;5043147;28;20465;-66
2023/12/05 06:18:15;;;;;;;18.42;14.35;;;2.50;90.00;;;;;;5040847;28;20029;-67
2023/12/05 06:20:44;;;;;;;18.63;13.18;;;2.50;90.00;;;;;;5040994;28;20495;-64
2023/12/05 06:23:10;;;;;;;26.95;15.98;;;2.50;90.00;;;;;;5039328;28;20052;-67
2023/12/05 06:25:36;;;;;;;21.60;14.65;;;2.50;89.60;;;;;;5040695;28;20483;-60
2023/12/05 06:28:01;;;;;;;24.48;17.50;;;2.60;89.90;;;;;;5036652;28;20116;-64
2023/12/05 06:30:27;;;;;;;31.55;18.98;;;2.60;90.40;;;;;;5036557;28;20087;-64
2023/12/05 06:32:53;;;;;;;36.75;22.90;;;2.60;89.90;;;;;;5039816;28;20033;-69
2023/12/05 06:35:19;;;;;;;41.42;26.33;;;2.70;89.70;;;;;;5048844;28;20030;-69
2023/12/05 06:37:44;;;;;;;92.18;55.65;;;2.70;89.00;;;;;;5035724;28;20053;-65
2023/12/05 06:40:11;;;;;;;71.72;46.80;;;2.70;90.00;;;;;;5041025;28;20061;-68
2023/12/05 06:42:38;;;;;;;68.97;46.65;;;2.70;90.00;;;;;;5051952;28;20396;-68
2023/12/05 06:45:04;;;;;;;55.72;38.78;;;2.80;90.20;;;;;;5049730;28;20495;-62
2023/12/05 06:47:31;;;;;;;70.85;47.80;;;2.80;90.60;;;;;;5036432;28;20026;-66
2023/12/05 06:50:01;;;;;;;119.97;78.30;;;2.80;89.70;;;;;;5038793;28;20021;-62
2023/12/05 06:52:27;;;;;;;118.40;76.63;;;2.90;89.30;;;;;;5044262;28;20515;-64
2023/12/05 06:54:52;;;;;;;139.88;89.90;;;2.80;89.40;;;;;;5046084;28;20025;-62
2023/12/05 06:57:18;;;;;;;114.95;74.95;;;2.80;90.00;;;;;;5052511;28;20029;-69
2023/12/05 06:59:44;;;;;;;91.80;60.85;;;2.80;90.00;;;;;;5055636;28;20031;-60
2023/12/05 07:02:10;;;;;;;82.40;54.72;;;2.90;90.10;;;;;;5055687;28;20048;-65
2023/12/05 07:04:36;;;;;;;63.92;43.70;;;3.00;88.80;;;;;;5052817;28;20462;-69
2023/12/05 07:07:01;;;;;;;52.10;34.47;;;3.10;87.40;;;;;;5054987;28;20159;-68
2023/12/05 07:09:27;;;;;;;49.65;34.00;;;3.00;87.00;;;;;;5055054;28;20053;-67
2023/12/05 07:11:53;;;;;;;45.33;32.17;;;3.10;86.90;;;;;;5055475;28;20388;-65
2023/12/05 07:14:18;;;;;;;60.95;41.08;;;3.10;86.70;;;;;;5053954;28;20025;-70
2023/12/05 07:16:45;;;;;;;153.00;94.63;;;3.10;86.90;;;;;;5053744;28;20387;-69
2023/12/05 07:19:11;;;;;;;143.30;95.35;;;3.00;89.40;;;;;;5054230;28;20028;-64
2023/12/05 07:21:36;;;;;;;156.63;100.30;;;3.00;90.30;;;;;;5038133;28;20476;-64
2023/12/05 07:24:02;;;;;;;123.10;81.60;;;3.00;90.60;;;;;;5035317;28;20488;-62
2023/12/05 07:26:31;;;;;;;147.27;98.32;;;3.00;90.50;;;;;;5033296;28;20025;-67
2023/12/05 07:28:56;;;;;;;131.45;89.53;;;3.10;90.60;;;;;;5038033;28;20028;-69
2023/12/05 07:31:22;;;;;;;136.23;93.85;;;3.10;90.20;;;;;;5034721;28;20025;-69
2023/12/05 07:33:48;;;;;;;126.70;90.78;;;3.20;90.00;;;;;;5032313;28;20034;-67
2023/12/05 07:36:14;;;;;;;180.70;123.97;;;3.40;89.40;;;;;;5035120;28;20057;-63
2023/12/05 07:38:40;;;;;;;172.73;122.22;;;3.70;87.30;;;;;;5035170;28;20397;-64
2023/12/05 07:41:06;;;;;;;158.82;109.10;;;4.30;83.30;;;;;;5034368;28;20116;-67
2023/12/05 07:43:31;;;;;;;139.85;97.35;;;6.00;76.70;;;;;;5041540;28;20332;-63
2023/12/05 07:45:57;;;;;;;136.80;98.05;;;8.40;59.70;;;;;;5044631;28;20031;-68
2023/12/05 07:48:23;;;;;;;158.88;113.57;;;10.10;49.30;;;;;;5040777;28;20024;-62
2023/12/05 07:50:48;;;;;;;150.35;108.88;;;10.90;45.10;;;;;;5046619;28;20381;-63
2023/12/05 07:53:14;;;;;;;143.60;106.75;;;11.80;42.70;;;;;;5034260;28;20042;-71
2023/12/05 07:55:40;;;;;;;141.77;107.40;;;11.50;42.10;;;;;;5040123;28;20037;-71
2023/12/05 07:58:06;;;;;;;116.55;90.65;;;11.30;42.30;;;;;;5044814;28;20063;-65
2023/12/05 08:00:32;;;;;;;110.45;88.47;;;11.50;43.20;;;;;;5048946;28;20078;-65
2023/12/05 08:03:00;;;;;;;104.20;84.03;;;12.30;42.20;;;;;;5041677;28;20033;-69
2023/12/05 08:05:26;;;;;;;93.38;75.10;;;12.90;41.00;;;;;;5038133;28;20127;-62
2023/12/05 08:07:52;;;;;;;77.82;65.55;;;13.00;39.40;;;;;;5038510;28;20103;-67
2023/12/05 08:10:18;;;;;;;69.25;57.92;;;13.70;38.80;;;;;;5038242;28;20053;-62
2023/12/05 08:12:43;;;;;;;59.90;48.85;;;14.20;37.80;;;;;;5041182;28;20450;-65
2023/12/05 08:15:09;;;;;;;50.35;43.00;;;15.00;36.90;;;;;;5036027;28;20045;-62
2023/12/05 08:17:45;;;;;;;48.30;41.40;;;16.20;34.70;;;;;;5039020;28;20025;-70
2023/12/05 08:20:15;;;;;;;46.80;38.20;;;17.20;33.20;;;;;;5040799;28;20545;-66
2023/12/05 08:22:41;;;;;;;41.10;35.72;;;17.90;31.10;;;;;;5031077;28;20029;-63
2023/12/05 08:25:11;;;;;;;41.70;35.65;;;17.20;31.30;;;;;;5031874;28;20037;-69
2023/12/05 08:27:37;;;;;;;41.47;35.38;;;17.00;32.30;;;;;;5035122;28;20064;-69
2023/12/05 08:30:03;;;;;;;43.08;37.28;;;17.30;31.50;;;;;;5039857;28;20052;-63
2023/12/05 08:32:30;;;;;;;50.10;41.25;;;17.60;31.40;;;;;;5033606;28;20041;-63
2023/12/05 08:34:55;;;;;;;48.97;42.50;;;18.20;31.90;;;;;;5033290;28;20499;-68
2023/12/05 08:37:22;;;;;;;57.33;47.63;;;18.90;31.00;;;;;;5042387;28;20029;-64
2023/12/05 08:39:47;;;;;;;44.88;39.83;;;17.90;30.00;;;;;;5049118;28;20028;-67
2023/12/05 08:42:13;;;;;;;41.40;36.95;;;16.20;31.10;;;;;;5035135;28;20079;-63
2023/12/05 08:44:39;;;;;;;38.75;34.45;;;14.80;33.60;;;;;;5037427;28;20473;-61
2023/12/05 08:47:04;;;;;;;35.70;31.58;;;13.90;34.60;;;;;;5031501;28;20386;-65
2023/12/05 08:49:30;;;;;;;37.60;32.10;;;12.80;35.60;;;;;;5036102;28;20029;-66
2023/12/05 08:51:56;;;;;;;32.83;29.33;;;12.20;37.40;;;;;;5047742;28;20131;-69
2023/12/05 08:54:23;;;;;;;29.90;26.70;;;11.80;38.80;;;;;;5031661;28;20028;-67
2023/12/05 08:56:49;;;;;;;29.45;25.77;;;11.50;40.10;;;;;;5036029;28;20024;-67
2023/12/05 08:59:16;;;;;;;29.55;25.83;;;11.40;40.00;;;;;;5042352;28;20036;-70
2023/12/05 09:01:47;;;;;;;28.40;25.10;;;11.30;40.60;;;;;;5051942;28;20043;-74
2023/12/05 09:04:12;;;;;;;27.65;24.10;;;11.20;41.10;;;;;;5054772;28;20013;-64
2023/12/05 09:06:38;;;;;;;30.17;25.92;;;11.00;41.20;;;;;;5041923;28;20036;-65
2023/12/05 09:09:04;;;;;;;26.63;23.50;;;10.90;42.10;;;;;;5036621;28;20039;-69
2023/12/05 09:11:30;;;;;;;33.67;26.98;;;10.80;41.90;;;;;;5050566;28;20074;-67
2023/12/05 09:13:58;;;;;;;31.85;25.35;;;10.80;43.40;;;;;;5036317;28;20053;-70
2023/12/05 09:16:34;;;;;;;28.83;24.55;;;11.00;42.70;;;;;;5042758;28;20033;-65
2023/12/05 09:19:01;;;;;;;30.98;26.63;;;11.30;42.50;;;;;;5035975;28;20386;-65
2023/12/05 09:21:27;;;;;;;27.45;24.45;;;11.60;42.60;;;;;;5040878;28;20044;-71
2023/12/05 09:23:52;;;;;;;33.00;27.33;;;11.80;42.20;;;;;;5049785;28;20481;-63
2023/12/05 09:26:19;;;;;;;31.92;28.10;;;12.00;41.80;;;;;;5046570;28;20248;-65
2023/12/05 09:28:45;;;;;;;34.88;29.95;;;12.30;41.70;;;;;;5045076;28;20021;-66
2023/12/05 09:31:11;;;;;;;37.25;30.70;;;12.60;42.20;;;;;;5039049;28;20357;-68
2023/12/05 09:33:38;;;;;;;39.97;33.63;;;13.20;42.70;;;;;;5038974;28;20411;-67
2023/12/05 09:36:04;;;;;;;40.22;34.40;;;13.50;40.00;;;;;;5034458;28;20057;-63
2023/12/05 09:38:30;;;;;;;34.97;31.23;;;13.50;39.80;;;;;;5033844;28;20060;-66
2023/12/05 09:40:57;;;;;;;36.03;31.48;;;13.40;40.90;;;;;;5037482;28;20055;-63
2023/12/05 09:43:25;;;;;;;35.60;31.77;;;13.40;39.90;;;;;;5033987;28;20024;-68
2023/12/05 09:45:59;;;;;;;39.47;33.88;;;13.30;41.60;;;;;;5029264;28;20035;-67
2023/12/05 09:48:28;;;;;;;37.20;32.58;;;13.40;39.40;;;;;;5029435;28;20025;-68
2023/12/05 09:50:55;;;;;;;37.25;33.13;;;13.60;39.80;;;;;;5049331;28;20058;-65
2023/12/05 09:53:23;;;;;;;39.40;33.22;;;13.90;41.40;;;;;;5050212;28;20025;-64
2023/12/05 09:55:49;;;;;;;43.45;37.25;;;14.30;40.20;;;;;;5049306;28;20018;-65
2023/12/05 09:58:16;;;;;;;42.75;36.33;;;14.70;38.90;;;;;;5053228;28;20021;-68
2023/12/05 10:00:44;;;;;;;50.03;41.03;;;14.90;38.80;;;;;;5054486;28;20021;-66
2023/12/05 10:03:13;;;;;;;45.67;39.95;;;15.00;38.10;;;;;;5040561;28;20528;-69
2023/12/05 10:05:42;;;;;;;44.30;37.20;;;15.00;37.40;;;;;;5034248;28;20045;-69
2023/12/05 10:08:10;;;;;;;39.30;34.83;;;15.20;37.10;;;;;;5043194;28;20025;-68
2023/12/05 10:10:38;;;;;;;35.10;31.40;;;15.40;37.70;;;;;;5054572;28;20048;-65
2023/12/05 10:13:05;;;;;;;30.45;26.58;;;15.70;36.10;;;;;;5050110;28;20041;-65
2023/12/05 10:15:32;;;;;;;29.10;26.00;;;15.90;33.00;;;;;;5039491;28;20456;-66
2023/12/05 10:17:59;;;;;;;28.33;25.23;;;16.10;33.70;;;;;;5034978;28;20037;-63
2023/12/05 10:20:25;;;;;;;28.30;25.40;;;16.20;32.30;;;;;;5036941;28;20021;-65
2023/12/05 10:22:52;;;;;;;35.08;30.88;;;16.10;31.30;;;;;;5036025;28;20032;-64
2023/12/05 10:25:18;;;;;;;32.70;28.73;;;16.10;32.00;;;;;;5045677;28;20029;-66
2023/12/05 10:27:58;;;;;;;26.55;23.88;;;16.10;31.10;;;;;;5039326;28;20467;-64
2023/12/05 10:30:32;;;;;;;30.73;27.42;;;16.30;31.70;;;;;;5041621;28;20028;-67
2023/12/05 10:33:09;;;;;;;30.38;27.17;;;16.60;30.70;;;;;;5038894;28;20128;-61
2023/12/05 10:35:35;;;;;;;27.25;24.45;;;16.60;30.20;;;;;;5036397;28;20029;-65
2023/12/05 10:38:07;;;;;;;24.55;22.05;;;16.70;32.20;;;;;;5035860;28;20032;-66
2023/12/05 10:40:55;;;;;;;24.25;21.75;;;16.90;32.20;;;;;;5038617;28;20115;-62
2023/12/05 10:43:23;;;;;;;21.92;19.70;;;17.10;31.00;;;;;;5037940;28;20096;-65
2023/12/05 10:45:52;;;;;;;21.73;19.50;;;17.20;31.50;;;;;;5041053;28;20029;-65
2023/12/05 10:48:19;;;;;;;27.27;24.38;;;17.30;31.30;;;;;;5040756;28;20071;-65
2023/12/05 10:50:49;;;;;;;28.45;24.70;;;17.50;30.40;;;;;;5031279;28;20021;-64
2023/12/05 10:53:15;;;;;;;22.90;20.52;;;17.40;30.00;;;;;;5036896;28;20053;-64
2023/12/05 10:55:41;;;;;;;21.55;19.35;;;17.40;30.40;;;;;;5031824;28;20064;-66
2023/12/05 10:58:11;;;;;;;15.45;13.90;;;17.40;31.90;;;;;;5033039;28;20047;-76
2023/12/05 11:00:38;;;;;;;18.90;17.00;;;17.60;30.40;;;;;;5033941;28;20021;-73
2023/12/05 11:03:04;;;;;;;18.85;17.05;;;17.70;30.40;;;;;;5047998;28;20516;-66
2023/12/05 11:05:31;;;;;;;18.05;16.23;;;17.60;30.30;;;;;;5052541;28;20064;-63
2023/12/05 11:07:58;;;;;;;15.20;13.88;;;17.70;31.00;;;;;;5041532;28;20025;-65
2023/12/05 11:10:26;;;;;;;11.20;10.20;;;17.60;30.00;;;;;;5033372;28;20056;-63
2023/12/05 11:12:58;;;;;;;9.98;9.07;;;17.50;29.20;;;;;;5037271;28;20083;-68
2023/12/05 11:15:44;;;;;;;9.82;8.93;;;17.50;29.70;;;;;;5033357;28;20124;-70
2023/12/05 11:18:34;;;;;;;11.68;10.48;;;17.80;29.90;;;;;;5033218;28;20147;-63
2023/12/05 11:21:18;;;;;;;10.30;9.32;;;17.80;30.50;;;;;;5038304;28;20454;-65
2023/12/05 11:24:24;;;;;;;10.50;9.50;;;17.70;30.80;;;;;;5039848;28;20483;-65
2023/12/05 11:27:04;;;;;;;11.02;9.93;;;17.70;30.20;;;;;;5041249;28;20037;-64
2023/12/05 11:29:52;;;;;;;13.70;12.30;;;17.70;31.10;;;;;;5058308;28;20036;-67
2023/12/05 11:32:27;;;;;;;18.67;16.67;;;17.60;30.20;;;;;;5039803;28;20037;-64
2023/12/05 11:35:19;;;;;;;19.50;17.55;;;17.40;31.00;;;;;;5041299;28;20112;-66
2023/12/05 11:38:10;;;;;;;16.65;14.95;;;17.30;30.70;;;;;;5040011;28;20073;-68
2023/12/05 11:40:36;;;;;;;17.00;15.30;;;17.30;32.20;;;;;;5034476;28;20523;-63
2023/12/05 11:43:09;;;;;;;23.48;21.08;;;17.40;31.40;;;;;;5042939;28;20052;-67
2023/12/05 11:45:45;;;;;;;15.93;14.43;;;17.60;30.80;;;;;;5047209;28;20059;-63
2023/12/05 11:48:15;;;;;;;13.10;11.85;;;17.70;31.10;;;;;;5052147;28;20017;-67
2023/12/05 11:50:45;;;;;;;11.40;10.40;;;17.70;30.50;;;;;;5052672;28;20017;-61
2023/12/05 11:53:17;;;;;;;10.15;9.18;;;17.70;31.90;;;;;;5039442;28;20060;-62
2023/12/05 11:55:47;;;;;;;9.80;8.90;;;17.80;30.60;;;;;;5048266;28;20036;-71
2023/12/05 11:58:31;;;;;;;9.95;9.05;;;17.90;30.70;;;;;;5033810;28;20029;-68
2023/12/05 12:01:05;;;;;;;8.77;7.97;;;18.00;31.30;;;;;;5040479;28;20108;-70
2023/12/05 12:03:52;;;;;;;7.53;6.82;;;18.20;29.30;;;;;;5049052;28;20467;-68
2023/12/05 12:06:20;;;;;;;7.00;6.35;;;18.30;30.70;;;;;;5038343;28;20025;-65
2023/12/05 12:08:53;;;;;;;6.97;6.38;;;18.60;32.10;;;;;;5052586;28;20017;-68
2023/12/05 12:11:23;;;;;;;8.43;7.60;;;18.60;29.60;;;;;;5048300;28;20570;-63
2023/12/05 12:13:49;;;;;;;8.85;8.00;;;18.50;28.70;;;;;;5048173;28;20051;-63
2023/12/05 12:16:18;;;;;;;8.68;7.88;;;18.20;30.50;;;;;;5048094;28;20108;-65
2023/12/05 12:18:44;;;;;;;9.30;8.43;;;18.10;30.00;;;;;;5041462;28;20064;-62
2023/12/05 12:21:10;;;;;;;24.08;20.13;;;18.00;30.00;;;;;;5050904;28;20422;-65
2023/12/05 12:23:36;;;;;;;32.05;28.27;;;17.90;30.80;;;;;;5049406;28;20025;-68
2023/12/05 12:26:02;;;;;;;44.33;38.33;;;17.50;31.40;;;;;;5048964;28;20013;-66
2023/12/05 12:28:31;;;;;;;43.67;36.13;;;17.00;32.60;;;;;;5048766;28;20047;-67
2023/12/05 12:30:58;;;;;;;49.67;39.55;;;16.50;33.90;;;;;;5049271;28;20021;-67
2023/12/05 12:33:41;;;;;;;43.75;36.42;;;16.30;34.20;;;;;;5041764;28;20552;-67
2023/12/05 12:36:11;;;;;;;39.95;31.50;;;16.20;34.30;;;;;;5029520;28;20024;-66